Truckton, Colorado
Current Conditions -  °F | °C
As of 6:56 AM on Saturday 22 Nov 2014 (Local Time) from KABH Reporting Station
Clear Clear  
Wind Chill: 25°   Ceiling: Unl
Heat Index: 34°   Visibility: NA
Dew Point: 16°   Wind: 13mph
Humidity: 48%   Direction: 210°SSW
Pressure: 29.85"   Gusts: NA
Location:  38.697°N, 104.225°W
Report Text: KABH 221356Z AUTO 21011KT CLR 01/M09 A2985 RMK AO2 SLP130 T00111089 $
Loading
Personal Weather Stations






























Interactive Weather Map New forecast layout! Learn more

10-Day Weather Forecast

Advertisements
Track Severe Weather on mobile